Time;durP1;ratioP1;P1;durP2;ratioP2;P2;SDS_P1;SDS_P2;PMS_P1;PMS_P2;Temp;Humidity;BMP_temperature;BMP_pressure;BME280_temperature;BME280_humidity;BME280_pressure;Samples;Min_cycle;Max_cycle;Signal;HPM_P1;HPM_P2
2023/01/14 00:01:15;;;;;;;0.75;0.75;;;6.80;99.90;;;;;;5033748;28;20313;-85
2023/01/14 00:03:43;;;;;;;1.10;1.00;;;6.80;99.90;;;;;;5034882;28;20206;-86
2023/01/14 00:06:14;;;;;;;1.13;1.05;;;6.80;99.90;;;;;;5033719;28;20284;-85
2023/01/14 00:08:42;;;;;;;2.53;1.10;;;6.70;99.90;;;;;;5034016;28;20221;-85
2023/01/14 00:11:13;;;;;;;1.98;1.48;;;6.80;99.90;;;;;;5034202;28;20203;-85
2023/01/14 00:13:42;;;;;;;2.90;1.10;;;6.80;99.90;;;;;;5033863;28;20206;-85
2023/01/14 00:16:13;;;;;;;0.80;0.80;;;6.80;99.90;;;;;;5033740;28;20240;-86
2023/01/14 00:18:43;;;;;;;1.23;0.90;;;6.80;99.90;;;;;;5034170;28;20210;-86
2023/01/14 00:21:14;;;;;;;0.60;0.60;;;6.80;99.90;;;;;;5033730;28;20262;-86
2023/01/14 00:23:42;;;;;;;2.28;1.60;;;6.80;99.90;;;;;;5033695;28;20285;-86
2023/01/14 00:26:13;;;;;;;1.75;1.20;;;6.90;99.90;;;;;;5033407;28;20226;-86
2023/01/14 00:28:42;;;;;;;0.98;0.90;;;6.80;99.90;;;;;;5033591;28;20210;-86
2023/01/14 00:31:13;;;;;;;1.10;1.00;;;6.90;99.90;;;;;;5033616;28;20211;-85
2023/01/14 00:33:43;;;;;;;1.27;1.13;;;6.90;99.90;;;;;;5033455;28;20205;-87
2023/01/14 00:36:14;;;;;;;2.05;1.42;;;6.90;99.90;;;;;;5033693;28;20230;-85
2023/01/14 00:38:42;;;;;;;1.80;1.10;;;6.90;99.90;;;;;;5032020;28;20214;-86
2023/01/14 00:41:12;;;;;;;1.17;0.85;;;6.90;99.90;;;;;;5030471;28;20296;-85
2023/01/14 00:43:42;;;;;;;0.80;0.77;;;6.90;99.90;;;;;;5031385;28;20230;-85
2023/01/14 00:46:13;;;;;;;1.50;1.27;;;6.80;99.90;;;;;;5031057;28;20226;-85
2023/01/14 00:48:43;;;;;;;4.22;1.33;;;6.80;99.90;;;;;;5030700;28;20202;-85
2023/01/14 00:51:13;;;;;;;1.77;1.10;;;6.80;99.90;;;;;;5030640;28;20261;-86
2023/01/14 00:53:42;;;;;;;7.85;1.10;;;6.90;99.90;;;;;;5030848;28;20218;-86
2023/01/14 00:56:11;;;;;;;1.83;1.27;;;6.90;99.90;;;;;;5031152;28;20230;-86
2023/01/14 00:58:39;;;;;;;0.95;0.90;;;6.90;99.90;;;;;;5030972;28;20206;-86
2023/01/14 01:01:08;;;;;;;1.60;1.08;;;6.90;99.90;;;;;;5030936;28;20234;-85
2023/01/14 01:03:39;;;;;;;15.07;1.33;;;6.90;99.90;;;;;;5031405;28;20301;-85
2023/01/14 01:06:10;;;;;;;1.30;1.20;;;6.90;99.90;;;;;;5031188;28;20230;-85
2023/01/14 01:08:39;;;;;;;1.20;1.10;;;6.90;99.90;;;;;;5031038;28;20226;-87
2023/01/14 01:11:08;;;;;;;2.40;1.48;;;6.90;99.90;;;;;;5030825;28;20216;-84
2023/01/14 01:13:37;;;;;;;1.88;1.20;;;6.90;99.90;;;;;;5030247;28;20222;-85
2023/01/14 01:16:07;;;;;;;0.73;0.73;;;6.90;99.90;;;;;;5030095;28;20242;-85
2023/01/14 01:18:37;;;;;;;1.67;1.25;;;6.90;99.90;;;;;;5030456;28;20210;-85
2023/01/14 01:21:07;;;;;;;0.77;0.77;;;6.90;99.90;;;;;;5030164;28;20218;-85
2023/01/14 01:23:40;;;;;;;1.25;1.13;;;6.90;99.90;;;;;;5030309;28;20202;-85
2023/01/14 01:26:11;;;;;;;3.83;1.00;;;6.90;99.90;;;;;;5030671;28;20284;-85
2023/01/14 01:28:39;;;;;;;1.35;0.98;;;6.90;99.90;;;;;;5030291;28;20214;-84
2023/01/14 01:31:11;;;;;;;1.58;1.20;;;6.90;99.90;;;;;;5030395;28;20290;-85
2023/01/14 01:33:39;;;;;;;0.88;0.88;;;6.90;99.90;;;;;;5029746;28;20621;-85
2023/01/14 01:36:13;;;;;;;5.90;1.27;;;6.90;99.90;;;;;;5030318;28;20254;-85
2023/01/14 01:38:43;;;;;;;1.30;1.20;;;6.90;99.90;;;;;;5030364;28;20211;-85
2023/01/14 01:41:15;;;;;;;0.73;0.73;;;7.00;99.90;;;;;;5030244;28;20236;-85
2023/01/14 01:44:01;;;;;;;1.48;1.30;;;7.00;99.90;;;;;;5029900;28;20241;-85
2023/01/14 01:46:31;;;;;;;2.08;1.27;;;7.00;99.90;;;;;;5030295;28;20237;-85
2023/01/14 01:49:03;;;;;;;0.90;0.90;;;7.00;99.90;;;;;;5029839;28;20206;-85
2023/01/14 01:51:36;;;;;;;3.88;1.40;;;7.00;99.90;;;;;;5030105;28;20206;-85
2023/01/14 01:54:06;;;;;;;1.10;1.10;;;7.00;99.90;;;;;;5029869;28;20208;-85
2023/01/14 01:56:37;;;;;;;1.13;1.02;;;7.00;99.90;;;;;;5030128;28;20230;-84
2023/01/14 01:59:10;;;;;;;1.05;1.02;;;7.00;99.90;;;;;;5030683;28;20302;-84
2023/01/14 02:01:41;;;;;;;1.58;1.30;;;6.90;99.90;;;;;;5029822;28;20230;-85
2023/01/14 02:04:10;;;;;;;0.82;0.82;;;6.90;99.90;;;;;;5030369;28;20210;-86
2023/01/14 02:06:39;;;;;;;1.80;1.40;;;6.90;99.90;;;;;;5030065;28;20230;-85
2023/01/14 02:09:09;;;;;;;1.27;1.20;;;6.90;99.90;;;;;;5047627;28;20224;-86
2023/01/14 02:11:51;;;;;;;1.10;0.95;;;6.90;99.90;;;;;;5049863;28;20201;-85
2023/01/14 02:14:33;;;;;;;1.75;1.30;;;6.90;99.90;;;;;;5049687;28;20222;-85
2023/01/14 02:17:10;;;;;;;1.88;1.45;;;7.00;99.90;;;;;;5053753;28;20240;-85
2023/01/14 02:20:02;;;;;;;1.10;1.08;;;6.90;99.90;;;;;;5054216;28;20213;-85
2023/01/14 02:22:44;;;;;;;3.97;1.15;;;6.90;99.90;;;;;;5053701;28;20237;-85
2023/01/14 02:25:41;;;;;;;1.15;1.00;;;6.90;99.90;;;;;;5034080;28;20203;-85
2023/01/14 02:28:23;;;;;;;1.25;1.08;;;6.90;99.90;;;;;;5034010;28;20218;-84
2023/01/14 02:31:01;;;;;;;1.33;1.10;;;6.90;99.90;;;;;;5033848;28;20203;-85
2023/01/14 02:33:40;;;;;;;0.73;0.70;;;6.90;99.90;;;;;;5033847;28;20302;-85
2023/01/14 02:36:18;;;;;;;1.33;1.23;;;7.00;99.90;;;;;;5034596;28;20237;-84
2023/01/14 02:38:53;;;;;;;1.80;1.20;;;6.90;99.90;;;;;;5035575;28;20210;-85
2023/01/14 02:44:07;;;;;;;1.17;1.08;;;7.00;99.90;;;;;;5035567;28;20226;-85
2023/01/14 02:44:19;;;;;;;0.88;0.77;;;6.90;99.90;;;;;;5035779;28;20219;-85
2023/01/14 02:46:53;;;;;;;0.80;0.70;;;7.00;99.90;;;;;;5035586;28;20227;-84
2023/01/14 02:49:26;;;;;;;0.85;0.85;;;6.90;99.90;;;;;;5035652;28;20261;-85
2023/01/14 02:51:58;;;;;;;1.13;0.77;;;6.90;99.90;;;;;;5035378;28;20210;-85
2023/01/14 02:54:28;;;;;;;0.60;0.60;;;7.00;99.90;;;;;;5036073;28;20285;-86
2023/01/14 02:57:04;;;;;;;0.85;0.60;;;6.90;99.90;;;;;;5035476;28;20230;-85
2023/01/14 02:59:44;;;;;;;1.17;1.08;;;6.90;99.90;;;;;;5035581;28;20213;-84
2023/01/14 03:02:26;;;;;;;0.90;0.75;;;7.00;99.90;;;;;;5035159;28;20226;-84
2023/01/14 03:05:08;;;;;;;1.60;0.98;;;7.00;99.90;;;;;;5035378;28;20317;-84
2023/01/14 03:07:43;;;;;;;1.20;1.10;;;7.00;99.90;;;;;;5040557;28;20277;-85
2023/01/14 03:10:21;;;;;;;0.80;0.80;;;7.00;99.90;;;;;;5055190;28;20211;-85
2023/01/14 03:13:08;;;;;;;1.30;1.20;;;7.00;99.90;;;;;;5055317;28;20201;-83
2023/01/14 03:15:42;;;;;;;0.73;0.73;;;7.00;99.90;;;;;;5054841;28;20238;-84
2023/01/14 03:18:20;;;;;;;1.15;0.85;;;7.00;99.90;;;;;;5054290;28;20206;-84
2023/01/14 03:20:53;;;;;;;2.15;1.20;;;7.00;99.90;;;;;;5054951;28;20240;-84
2023/01/14 03:23:25;;;;;;;1.02;0.80;;;6.90;99.90;;;;;;5050688;28;20198;-84
2023/01/14 03:25:55;;;;;;;0.70;0.70;;;6.90;99.90;;;;;;5035035;28;20306;-84
2023/01/14 03:28:29;;;;;;;1.08;0.52;;;6.90;99.90;;;;;;5033852;28;20210;-84
2023/01/14 03:31:01;;;;;;;0.77;0.77;;;6.90;99.90;;;;;;5034668;28;20214;-85
2023/01/14 03:33:39;;;;;;;1.48;1.23;;;6.90;99.90;;;;;;5034658;28;20210;-84
2023/01/14 03:36:08;;;;;;;2.72;1.05;;;7.00;99.90;;;;;;5034646;28;20314;-84
2023/01/14 03:38:40;;;;;;;0.50;0.50;;;7.00;99.90;;;;;;5034623;28;20203;-85
2023/01/14 03:41:11;;;;;;;2.15;0.90;;;7.00;99.90;;;;;;5034772;28;20222;-84
2023/01/14 03:43:45;;;;;;;1.10;0.90;;;6.90;99.90;;;;;;5034696;28;20202;-84
2023/01/14 03:46:14;;;;;;;1.58;0.85;;;6.90;99.90;;;;;;5034121;28;20246;-85
2023/01/14 03:48:44;;;;;;;0.90;0.70;;;6.90;99.90;;;;;;5034461;28;20210;-84
2023/01/14 03:51:23;;;;;;;1.30;1.10;;;7.00;99.90;;;;;;5034733;28;20208;-84
2023/01/14 03:54:07;;;;;;;1.38;0.93;;;6.90;99.90;;;;;;5034584;28;20216;-86
2023/01/14 03:56:40;;;;;;;0.70;0.68;;;6.90;99.90;;;;;;5033888;28;20226;-86
2023/01/14 03:59:12;;;;;;;0.90;0.80;;;6.90;99.90;;;;;;5034412;28;20224;-85
2023/01/14 04:01:45;;;;;;;0.93;0.90;;;6.90;99.90;;;;;;5034197;28;20233;-85
2023/01/14 04:04:16;;;;;;;1.38;0.70;;;6.90;99.90;;;;;;5034143;28;20207;-85
2023/01/14 04:06:45;;;;;;;1.40;1.08;;;6.90;99.90;;;;;;5033976;28;20242;-85
2023/01/14 04:09:13;;;;;;;4.50;1.40;;;6.90;99.90;;;;;;5052394;28;20206;-85
2023/01/14 04:11:41;;;;;;;0.88;0.60;;;6.90;99.90;;;;;;5053941;28;20292;-85
2023/01/14 04:16:55;;;;;;;1.15;0.88;;;6.80;99.90;;;;;;5053508;28;20234;-85
2023/01/14 04:19:25;;;;;;;1.63;0.90;;;6.80;99.90;;;;;;5053883;28;20237;-86
2023/01/14 04:21:53;;;;;;;1.23;1.00;;;6.80;99.90;;;;;;5053914;28;20222;-85
2023/01/14 04:24:22;;;;;;;2.00;1.42;;;6.80;99.90;;;;;;5041014;28;20206;-86
2023/01/14 04:26:50;;;;;;;4.93;0.70;;;6.80;99.90;;;;;;5033662;28;20222;-86
2023/01/14 04:29:18;;;;;;;1.08;0.88;;;6.80;99.90;;;;;;5033782;28;20217;-84
2023/01/14 04:31:46;;;;;;;0.80;0.80;;;6.80;99.90;;;;;;5033289;28;20218;-84
2023/01/14 04:34:15;;;;;;;1.10;0.75;;;6.80;99.90;;;;;;5033796;28;20210;-85
2023/01/14 04:36:45;;;;;;;0.60;0.60;;;6.80;99.90;;;;;;5033487;28;20317;-86
2023/01/14 04:39:13;;;;;;;1.90;1.05;;;6.80;99.90;;;;;;5033027;28;20285;-85
2023/01/14 04:44:35;;;;;;;1.88;1.00;;;6.80;99.90;;;;;;5009033;28;20305;-85
2023/01/14 04:47:03;;;;;;;1.25;1.00;;;6.70;99.90;;;;;;5033192;28;20227;-85
2023/01/14 04:49:32;;;;;;;1.42;1.05;;;6.70;99.90;;;;;;5033342;28;20215;-85
2023/01/14 04:52:02;;;;;;;7.13;1.10;;;6.60;99.90;;;;;;5033422;28;20289;-85
2023/01/14 04:54:30;;;;;;;1.92;1.05;;;6.70;99.90;;;;;;5033198;28;20213;-85
2023/01/14 04:57:01;;;;;;;0.85;0.75;;;6.70;99.90;;;;;;5032592;28;20305;-85
2023/01/14 04:59:29;;;;;;;0.85;0.80;;;6.60;99.90;;;;;;5033366;28;20220;-85
2023/01/14 05:01:57;;;;;;;1.10;0.90;;;6.60;99.90;;;;;;5033103;28;20233;-85
2023/01/14 05:04:27;;;;;;;1.10;0.85;;;6.60;99.90;;;;;;5033116;28;20203;-86
2023/01/14 05:06:55;;;;;;;0.65;0.65;;;6.60;99.90;;;;;;5033250;28;20321;-85
2023/01/14 05:09:25;;;;;;;4.95;1.23;;;6.50;99.90;;;;;;5032877;28;20264;-85
2023/01/14 05:11:53;;;;;;;1.00;1.00;;;6.60;99.90;;;;;;5032962;28;20207;-85
2023/01/14 05:14:22;;;;;;;25.13;1.30;;;6.60;99.90;;;;;;5032657;28;20218;-86
2023/01/14 05:16:50;;;;;;;1.25;1.15;;;6.60;99.90;;;;;;5032781;28;20226;-84
2023/01/14 05:19:18;;;;;;;7.72;0.90;;;6.70;99.90;;;;;;5032802;28;20206;-86
2023/01/14 05:21:46;;;;;;;1.48;1.05;;;6.70;99.90;;;;;;5032606;28;20210;-85
2023/01/14 05:24:15;;;;;;;2.25;0.98;;;6.80;99.90;;;;;;5032722;28;20237;-86
2023/01/14 05:26:45;;;;;;;1.40;1.30;;;6.70;99.90;;;;;;5032622;28;20218;-85
2023/01/14 05:29:13;;;;;;;1.85;1.13;;;6.70;99.90;;;;;;5032849;28;20211;-85
2023/01/14 05:31:41;;;;;;;1.70;1.33;;;6.60;99.90;;;;;;5032579;28;20206;-86
2023/01/14 05:34:11;;;;;;;1.33;0.98;;;6.60;99.90;;;;;;5032561;28;20214;-86
2023/01/14 05:36:39;;;;;;;0.55;0.55;;;6.60;99.90;;;;;;5032398;28;20229;-86
2023/01/14 05:39:07;;;;;;;0.95;0.85;;;6.60;99.90;;;;;;5032867;28;20202;-86
2023/01/14 05:45:37;;;;;;;2.88;1.42;;;6.70;99.90;;;;;;5032501;28;20206;-86
2023/01/14 05:47:19;;;;;;;0.98;0.85;;;6.70;99.90;;;;;;5008348;28;20233;-86
2023/01/14 05:49:47;;;;;;;1.10;1.00;;;6.70;99.90;;;;;;5032970;28;20206;-86
2023/01/14 05:52:16;;;;;;;1.08;1.02;;;6.70;99.90;;;;;;5036577;28;20210;-85
2023/01/14 05:54:44;;;;;;;2.30;1.00;;;6.80;99.90;;;;;;5037091;28;20208;-85
2023/01/14 05:57:14;;;;;;;2.05;1.05;;;6.80;99.90;;;;;;5036231;28;20230;-85
2023/01/14 05:59:44;;;;;;;1.42;1.10;;;6.80;99.90;;;;;;5036455;28;20206;-84
2023/01/14 06:07:52;;;;;;;2.38;0.82;;;6.70;99.90;;;;;;5035191;28;20206;-84
2023/01/14 06:10:24;;;;;;;1.48;0.80;;;6.70;99.90;;;;;;5039519;28;20211;-84
2023/01/14 06:13:00;;;;;;;1.50;1.02;;;6.70;99.90;;;;;;5041792;28;20202;-83
2023/01/14 06:15:35;;;;;;;1.85;1.20;;;6.70;99.90;;;;;;5036509;28;20236;-82
2023/01/14 06:18:13;;;;;;;1.35;1.15;;;6.70;99.90;;;;;;5054254;28;20289;-83
2023/01/14 06:20:43;;;;;;;0.60;0.60;;;6.70;99.90;;;;;;5047185;28;20206;-83
2023/01/14 06:23:13;;;;;;;1.00;0.90;;;6.80;99.90;;;;;;5039964;28;20264;-84
2023/01/14 06:25:44;;;;;;;1.10;1.00;;;6.80;99.90;;;;;;5035897;28;20223;-84
2023/01/14 06:28:13;;;;;;;0.98;0.98;;;6.90;99.90;;;;;;5035796;28;20221;-82
2023/01/14 06:30:44;;;;;;;4.35;1.45;;;6.80;99.90;;;;;;5035718;28;20245;-82
2023/01/14 06:33:12;;;;;;;1.20;0.88;;;6.80;99.90;;;;;;5035826;28;20210;-83
2023/01/14 06:35:45;;;;;;;1.08;0.77;;;6.80;99.90;;;;;;5035700;28;20233;-83
2023/01/14 06:38:14;;;;;;;2.28;1.17;;;6.80;99.90;;;;;;5035184;28;20221;-83
2023/01/14 06:40:43;;;;;;;2.38;1.25;;;6.80;99.90;;;;;;5035643;28;20202;-82
2023/01/14 06:43:11;;;;;;;1.70;1.55;;;6.70;99.90;;;;;;5035103;28;20223;-82
2023/01/14 06:45:40;;;;;;;15.13;1.20;;;6.70;99.90;;;;;;5035706;28;20276;-83
2023/01/14 06:48:09;;;;;;;7.68;1.50;;;6.60;99.90;;;;;;5035205;28;20207;-83
2023/01/14 06:50:38;;;;;;;1.23;0.98;;;6.60;99.90;;;;;;5035454;28;20289;-83
2023/01/14 06:53:06;;;;;;;1.02;0.68;;;6.60;99.90;;;;;;5035539;28;20207;-83
2023/01/14 06:55:34;;;;;;;3.10;1.23;;;6.60;99.90;;;;;;5035288;28;20233;-83
2023/01/14 06:58:02;;;;;;;1.55;1.00;;;6.60;99.90;;;;;;5035179;28;20237;-83
2023/01/14 07:00:31;;;;;;;1.60;1.13;;;6.60;99.90;;;;;;5035347;28;20216;-84
2023/01/14 07:02:59;;;;;;;1.17;1.10;;;6.60;99.90;;;;;;5034931;28;20357;-84
2023/01/14 07:05:29;;;;;;;4.20;1.20;;;6.60;99.90;;;;;;5034957;28;20210;-83
2023/01/14 07:07:58;;;;;;;1.40;1.00;;;6.60;99.90;;;;;;5034943;28;20274;-83
2023/01/14 07:10:26;;;;;;;1.67;1.23;;;6.60;99.90;;;;;;5035390;28;20210;-83
2023/01/14 07:12:55;;;;;;;1.35;1.25;;;6.60;99.90;;;;;;5035074;28;20209;-83
2023/01/14 07:15:23;;;;;;;1.27;1.17;;;6.60;99.90;;;;;;5034529;28;20305;-83
2023/01/14 07:17:52;;;;;;;1.83;1.30;;;6.60;99.90;;;;;;5035049;28;20210;-83
2023/01/14 07:20:20;;;;;;;3.08;1.50;;;6.60;99.90;;;;;;5034812;28;20210;-83
2023/01/14 07:22:51;;;;;;;0.73;0.73;;;6.50;99.90;;;;;;5034754;28;20285;-83
2023/01/14 07:25:20;;;;;;;1.25;1.15;;;6.50;99.90;;;;;;5034596;28;20215;-83
2023/01/14 07:27:51;;;;;;;2.22;1.38;;;6.50;99.90;;;;;;5033848;28;20225;-83
2023/01/14 07:30:20;;;;;;;1.20;1.10;;;6.50;99.90;;;;;;5035144;28;20215;-87
2023/01/14 07:32:48;;;;;;;3.80;1.50;;;6.50;99.90;;;;;;5034627;28;20210;-86
2023/01/14 07:35:16;;;;;;;3.67;1.60;;;6.60;99.90;;;;;;5034211;28;20199;-86
2023/01/14 07:37:45;;;;;;;8.90;1.40;;;6.60;99.90;;;;;;5034219;28;20214;-86
2023/01/14 07:40:15;;;;;;;2.05;1.20;;;6.60;99.90;;;;;;5034263;28;20279;-86
2023/01/14 07:42:43;;;;;;;1.10;1.00;;;6.70;99.90;;;;;;5034407;28;20430;-86
2023/01/14 07:45:12;;;;;;;1.35;1.15;;;6.70;99.90;;;;;;5033849;28;20219;-90
2023/01/14 07:47:40;;;;;;;1.95;1.20;;;6.70;99.90;;;;;;5033691;28;20244;-85
2023/01/14 07:50:10;;;;;;;0.80;0.80;;;6.80;99.90;;;;;;5034132;28;20207;-85
2023/01/14 07:52:38;;;;;;;1.42;1.23;;;6.80;99.90;;;;;;5033974;28;20202;-85
2023/01/14 07:55:07;;;;;;;0.90;0.90;;;6.80;99.90;;;;;;5033986;28;20210;-85
2023/01/14 07:57:36;;;;;;;2.80;1.50;;;6.80;99.90;;;;;;5033653;28;20230;-85
2023/01/14 08:00:06;;;;;;;1.05;1.00;;;6.80;99.90;;;;;;5033055;28;20317;-85
2023/01/14 08:02:36;;;;;;;1.88;1.23;;;6.80;99.90;;;;;;5033997;28;20206;-85
2023/01/14 08:05:05;;;;;;;1.15;0.98;;;6.80;99.90;;;;;;5033701;28;20226;-85
2023/01/14 08:07:33;;;;;;;1.48;1.20;;;6.80;99.90;;;;;;5033565;28;20226;-86
2023/01/14 08:10:02;;;;;;;4.13;1.10;;;6.80;99.90;;;;;;5033886;28;20217;-85
2023/01/14 08:12:31;;;;;;;2.78;1.40;;;6.90;99.90;;;;;;5032958;28;20211;-86
2023/01/14 08:15:02;;;;;;;2.78;1.45;;;6.90;99.90;;;;;;5033398;28;20210;-86
2023/01/14 08:17:30;;;;;;;1.88;0.95;;;7.00;99.90;;;;;;5032978;28;20250;-86
2023/01/14 08:19:58;;;;;;;1.02;0.98;;;7.00;99.90;;;;;;5033410;28;20215;-85
2023/01/14 08:22:29;;;;;;;1.73;1.17;;;7.00;99.90;;;;;;5033764;28;20207;-85
2023/01/14 08:24:57;;;;;;;1.17;0.82;;;7.10;99.90;;;;;;5032829;28;20221;-85
2023/01/14 08:27:26;;;;;;;3.40;1.45;;;7.20;99.90;;;;;;5033023;28;20227;-85
2023/01/14 08:29:54;;;;;;;1.95;1.15;;;7.20;99.90;;;;;;5033214;28;20206;-85
2023/01/14 08:32:25;;;;;;;1.08;1.08;;;7.30;99.90;;;;;;5033596;28;20210;-86
2023/01/14 08:34:53;;;;;;;1.33;1.23;;;7.30;99.90;;;;;;5033241;28;20289;-85
2023/01/14 08:37:21;;;;;;;3.80;1.58;;;7.40;99.90;;;;;;5033045;28;20230;-85
2023/01/14 08:39:50;;;;;;;2.53;1.45;;;7.40;99.90;;;;;;5033263;28;20209;-85
2023/01/14 08:42:18;;;;;;;13.13;1.52;;;7.40;99.90;;;;;;5033030;28;20210;-85
2023/01/14 08:44:46;;;;;;;1.52;1.17;;;7.40;99.90;;;;;;5032701;28;20217;-86
2023/01/14 08:47:15;;;;;;;1.85;0.95;;;7.50;99.90;;;;;;5032772;28;20234;-86
2023/01/14 08:49:45;;;;;;;1.05;0.95;;;7.50;99.90;;;;;;5032944;28;20210;-86
2023/01/14 08:52:13;;;;;;;1.67;1.17;;;7.50;99.90;;;;;;5032041;28;20214;-86
2023/01/14 08:54:41;;;;;;;1.92;1.25;;;7.60;99.90;;;;;;5033224;28;20224;-86
2023/01/14 08:57:09;;;;;;;1.30;1.05;;;7.60;99.90;;;;;;5032078;28;20226;-87
2023/01/14 08:59:38;;;;;;;2.13;1.25;;;7.70;99.90;;;;;;5032151;28;20210;-86
2023/01/14 09:02:07;;;;;;;3.65;1.48;;;7.80;99.90;;;;;;5032389;28;20301;-86
2023/01/14 09:04:38;;;;;;;5.70;1.15;;;7.80;99.90;;;;;;5032418;28;20222;-86
2023/01/14 09:18:15;;;;;;;2.25;1.13;;;8.10;99.90;;;;;;5051999;28;20422;-90
2023/01/14 09:20:43;;;;;;;3.15;1.30;;;8.10;99.90;;;;;;5052024;28;20208;-87
2023/01/14 09:23:13;;;;;;;1.42;1.00;;;8.20;99.90;;;;;;5051654;28;20206;-88
2023/01/14 09:25:41;;;;;;;1.77;1.55;;;8.30;99.90;;;;;;5051140;28;20226;-88
2023/01/14 09:28:10;;;;;;;2.63;1.38;;;8.30;99.90;;;;;;5051901;28;20292;-87
2023/01/14 09:30:38;;;;;;;1.10;1.10;;;8.40;99.90;;;;;;5052120;28;20217;-88
2023/01/14 09:33:06;;;;;;;1.98;0.95;;;8.40;99.90;;;;;;5051729;28;20208;-88
2023/01/14 09:35:34;;;;;;;1.70;1.20;;;8.50;99.90;;;;;;5051505;28;20221;-88
2023/01/14 09:38:03;;;;;;;4.07;1.25;;;8.40;99.90;;;;;;5051354;28;20240;-87
2023/01/14 09:40:37;;;;;;;0.95;0.93;;;8.50;99.90;;;;;;5052016;28;20209;-88
2023/01/14 09:43:06;;;;;;;1.08;0.85;;;8.60;99.90;;;;;;5051862;28;20205;-88
2023/01/14 09:45:36;;;;;;;2.97;1.27;;;8.60;99.90;;;;;;5051618;28;20281;-88
2023/01/14 09:48:12;;;;;;;1.85;1.33;;;8.70;99.90;;;;;;5051524;28;20201;-88
2023/01/14 09:50:56;;;;;;;1.67;1.27;;;8.70;99.90;;;;;;5051384;28;20205;-88
2023/01/14 09:53:45;;;;;;;1.88;1.48;;;8.80;99.90;;;;;;5051592;28;20221;-88
2023/01/14 09:56:20;;;;;;;1.52;1.13;;;8.90;99.90;;;;;;5051603;28;20226;-87
2023/01/14 09:58:54;;;;;;;2.55;1.42;;;8.90;99.90;;;;;;5051140;28;20313;-87
2023/01/14 10:01:31;;;;;;;1.52;1.23;;;9.00;99.90;;;;;;5051284;28;20269;-87
2023/01/14 10:04:10;;;;;;;1.55;1.38;;;9.00;99.90;;;;;;5051407;28;20214;-88
2023/01/14 10:06:39;;;;;;;0.85;0.85;;;9.00;99.90;;;;;;5051443;28;20240;-88
2023/01/14 10:09:14;;;;;;;3.65;1.92;;;9.00;99.90;;;;;;5052014;28;20209;-88
2023/01/14 10:11:46;;;;;;;2.17;1.35;;;9.10;99.90;;;;;;5051542;28;20208;-88
2023/01/14 10:14:18;;;;;;;3.22;1.77;;;9.20;99.90;;;;;;5051610;28;20218;-88
2023/01/14 10:16:49;;;;;;;2.00;1.45;;;9.30;99.90;;;;;;5051127;28;20305;-88
2023/01/14 10:19:21;;;;;;;1.23;0.93;;;9.30;99.90;;;;;;5051628;28;20201;-88
2023/01/14 10:21:53;;;;;;;1.90;1.00;;;9.50;99.90;;;;;;5051577;28;20213;-88
2023/01/14 10:24:21;;;;;;;8.55;1.60;;;9.50;99.90;;;;;;5051855;28;20206;-88
2023/01/14 10:26:52;;;;;;;8.68;1.20;;;9.60;99.90;;;;;;5051419;28;20229;-88
2023/01/14 10:29:22;;;;;;;2.35;1.27;;;9.80;99.90;;;;;;5051453;28;20210;-88
2023/01/14 10:31:54;;;;;;;1.13;1.08;;;10.10;99.90;;;;;;5051178;28;20237;-88
2023/01/14 10:34:27;;;;;;;1.55;1.10;;;10.40;99.90;;;;;;5051512;28;20209;-88
2023/01/14 10:36:55;;;;;;;1.50;1.33;;;10.70;99.90;;;;;;5053108;28;20321;-88
2023/01/14 10:39:24;;;;;;;1.23;1.10;;;11.10;99.90;;;;;;5055001;28;20287;-88
2023/01/14 10:42:00;;;;;;;1.80;1.27;;;11.30;99.90;;;;;;5055255;28;20205;-88
2023/01/14 10:44:30;;;;;;;2.08;1.30;;;11.50;99.90;;;;;;5054555;28;20213;-88
2023/01/14 10:47:03;;;;;;;2.08;1.73;;;11.90;99.90;;;;;;5054455;28;20307;-88
2023/01/14 10:49:37;;;;;;;1.38;1.20;;;12.40;99.90;;;;;;5055163;28;20217;-88
2023/01/14 10:52:23;;;;;;;2.83;1.60;;;12.90;99.90;;;;;;5054485;28;20228;-88
2023/01/14 10:54:59;;;;;;;2.70;1.35;;;13.40;99.90;;;;;;5054880;28;20209;-88
2023/01/14 10:57:30;;;;;;;1.85;1.50;;;13.40;99.90;;;;;;5055079;28;20229;-89
2023/01/14 11:00:00;;;;;;;1.30;0.90;;;13.70;99.90;;;;;;5055270;28;20210;-88
2023/01/14 11:02:35;;;;;;;0.98;0.98;;;13.70;99.90;;;;;;5055307;28;20224;-89
2023/01/14 11:05:06;;;;;;;2.33;1.70;;;14.10;99.90;;;;;;5055462;28;20288;-88
2023/01/14 11:07:38;;;;;;;1.48;1.38;;;14.30;99.60;;;;;;5054450;28;20225;-88
2023/01/14 11:10:19;;;;;;;1.33;1.23;;;14.20;99.90;;;;;;5054986;28;20210;-88
2023/01/14 11:12:49;;;;;;;8.70;1.90;;;14.60;99.70;;;;;;5055003;28;20210;-88
2023/01/14 11:15:35;;;;;;;2.63;1.58;;;14.40;97.70;;;;;;5054830;28;20217;-88
2023/01/14 11:18:35;;;;;;;2.95;1.75;;;14.30;98.30;;;;;;5054777;28;20213;-89
2023/01/14 11:21:15;;;;;;;2.47;1.45;;;13.60;97.40;;;;;;5054709;28;20220;-89
2023/01/14 11:23:45;;;;;;;2.28;1.77;;;13.00;98.50;;;;;;5054589;28;20259;-89
2023/01/14 11:26:24;;;;;;;4.88;2.65;;;13.10;98.50;;;;;;5054350;28;20309;-88
2023/01/14 11:29:01;;;;;;;1.65;1.42;;;13.60;99.20;;;;;;5054552;28;20201;-89
2023/01/14 11:31:31;;;;;;;1.75;1.33;;;13.80;98.00;;;;;;5055024;28;20201;-88
2023/01/14 11:34:00;;;;;;;2.03;1.38;;;13.70;97.50;;;;;;5054293;28;20214;-88
2023/01/14 11:36:32;;;;;;;1.48;1.38;;;14.10;97.80;;;;;;5053878;28;20222;-88
2023/01/14 11:39:02;;;;;;;1.50;1.40;;;14.20;97.20;;;;;;5054472;28;20202;-89
2023/01/14 11:41:33;;;;;;;1.73;1.20;;;14.00;97.00;;;;;;5054219;28;20198;-89
2023/01/14 11:44:05;;;;;;;6.57;1.40;;;13.90;96.50;;;;;;5054375;28;20216;-89
2023/01/14 11:46:36;;;;;;;1.15;1.08;;;14.10;96.60;;;;;;5053865;28;20236;-89
2023/01/14 11:49:17;;;;;;;1.15;1.05;;;13.90;95.80;;;;;;5052820;28;20248;-89
2023/01/14 11:51:59;;;;;;;4.15;1.58;;;13.90;96.20;;;;;;5054109;28;20214;-88
2023/01/14 11:54:34;;;;;;;1.80;1.45;;;14.10;96.80;;;;;;5054419;28;20220;-89
2023/01/14 11:57:03;;;;;;;1.65;1.52;;;14.70;94.70;;;;;;5053790;28;20252;-88
2023/01/14 11:59:34;;;;;;;2.42;1.77;;;14.80;94.40;;;;;;5054064;28;20208;-89
2023/01/14 12:02:06;;;;;;;2.38;1.40;;;14.90;94.10;;;;;;5053949;28;20205;-88
2023/01/14 12:04:40;;;;;;;2.95;1.40;;;14.40;93.50;;;;;;5054041;28;20202;-89
2023/01/14 12:07:12;;;;;;;3.78;1.23;;;14.40;93.50;;;;;;5053425;28;20227;-88
2023/01/14 12:09:47;;;;;;;1.60;1.50;;;14.50;93.90;;;;;;5054093;28;20202;-89
2023/01/14 12:12:18;;;;;;;3.95;1.45;;;14.30;93.70;;;;;;5054096;28;20263;-89
2023/01/14 12:17:49;;;;;;;2.47;2.08;;;13.90;94.30;;;;;;5053158;28;20204;-89
2023/01/14 12:20:20;;;;;;;2.35;1.95;;;14.20;93.90;;;;;;5053388;28;20205;-89
2023/01/14 12:22:54;;;;;;;1.20;1.10;;;14.40;93.50;;;;;;5053997;28;20212;-88
2023/01/14 12:25:25;;;;;;;1.42;1.25;;;14.40;93.00;;;;;;5054468;28;20206;-88
2023/01/14 12:28:00;;;;;;;1.88;1.70;;;14.50;93.10;;;;;;5054438;28;20271;-89
2023/01/14 12:30:42;;;;;;;1.73;1.40;;;14.80;93.70;;;;;;5054489;28;20236;-88
2023/01/14 12:33:28;;;;;;;2.15;1.67;;;14.90;92.30;;;;;;5053598;28;20205;-88
2023/01/14 12:36:01;;;;;;;1.70;1.50;;;14.60;93.10;;;;;;5053482;28;20218;-89
2023/01/14 12:47:14;;;;;;;1.88;1.50;;;15.60;91.10;;;;;;5052605;28;20233;-88
2023/01/14 12:49:43;;;;;;;1.40;1.10;;;16.00;90.30;;;;;;5053471;28;20210;-88
2023/01/14 12:52:23;;;;;;;2.15;1.70;;;16.40;87.60;;;;;;5053131;28;20306;-88
2023/01/14 12:54:52;;;;;;;1.60;1.50;;;16.20;84.80;;;;;;5053043;28;20206;-88
2023/01/14 12:57:23;;;;;;;0.88;0.88;;;15.80;85.20;;;;;;5052416;28;20218;-88
2023/01/14 12:59:55;;;;;;;1.35;1.20;;;15.70;85.90;;;;;;5052656;28;20240;-88
2023/01/14 13:02:32;;;;;;;1.30;1.20;;;15.80;87.20;;;;;;5053166;28;20212;-88
2023/01/14 13:05:06;;;;;;;11.68;1.92;;;15.80;86.00;;;;;;5052849;28;20205;-88
2023/01/14 13:07:38;;;;;;;1.77;1.67;;;15.70;85.70;;;;;;5052206;28;20222;-88
2023/01/14 13:10:09;;;;;;;10.48;2.78;;;15.70;87.50;;;;;;5052628;28;20244;-88
2023/01/14 13:12:40;;;;;;;1.75;1.65;;;15.70;87.70;;;;;;5052751;28;20240;-88
2023/01/14 13:15:22;;;;;;;1.85;1.75;;;15.90;85.20;;;;;;5053008;28;20224;-88
2023/01/14 13:17:55;;;;;;;2.45;1.67;;;16.00;85.50;;;;;;5052251;28;20206;-88
2023/01/14 13:20:48;;;;;;;1.48;1.38;;;16.10;86.10;;;;;;5052745;28;20206;-88
2023/01/14 13:24:02;;;;;;;1.40;1.30;;;16.20;83.20;;;;;;5052464;28;20301;-89
2023/01/14 13:26:54;;;;;;;1.23;1.13;;;16.20;81.20;;;;;;5038256;28;20236;-89
2023/01/14 13:29:24;;;;;;;1.85;1.02;;;15.90;81.50;;;;;;5052602;28;20212;-88
2023/01/14 13:31:54;;;;;;;1.40;1.30;;;15.90;83.00;;;;;;5052104;28;20216;-88
2023/01/14 13:35:04;;;;;;;1.90;1.80;;;15.80;81.70;;;;;;5052133;28;20210;-89
2023/01/14 13:37:46;;;;;;;1.90;1.75;;;15.70;83.10;;;;;;5051758;28;20229;-88
2023/01/14 13:40:19;;;;;;;2.40;2.20;;;15.60;80.70;;;;;;5052359;28;20216;-89
2023/01/14 13:42:58;;;;;;;2.78;2.30;;;15.60;82.70;;;;;;5052689;28;20217;-88
2023/01/14 13:45:28;;;;;;;2.08;1.80;;;15.60;81.60;;;;;;5052126;28;20205;-88
2023/01/14 13:47:58;;;;;;;2.47;2.25;;;15.70;81.00;;;;;;5051618;28;20271;-88
2023/01/14 13:50:31;;;;;;;2.75;2.20;;;15.50;81.50;;;;;;5052439;28;20219;-88
2023/01/14 13:53:04;;;;;;;1.70;1.60;;;15.30;81.30;;;;;;5052246;28;20206;-88
2023/01/14 13:55:34;;;;;;;1.20;1.10;;;15.00;82.60;;;;;;5051865;28;20233;-88
2023/01/14 13:58:07;;;;;;;1.55;1.40;;;14.80;81.40;;;;;;5051994;28;20205;-90